Overview Statistics Trail Chart Weather Telemetry Raw packets
 

This is the latest recevied weather packets stored in our database for station/object R2AKT-13. If no packets are shown the sender has not sent any weather packets the latest 10 day(s).

<< 58 59 60 61 62 63 64 >>
Time Temp. Humidity Pressure Rain* Wind** Luminosity Snow
1787909976 18.33° C 49% 1002.3 hPa - 0.89 m/s, 122° - -
1787909496 18.89° C 46% 1002.2 hPa - 0.89 m/s, 218° - -
1787908939 18.33° C 48% 1002.3 hPa - 0 m/s - -
1787908461 17.22° C 51% 1002.3 hPa - 2.24 m/s, 309° - -
1787907861 19.44° C 47% 1002.2 hPa - 0.89 m/s, 192° - -
1787907351 18.33° C 45% 1002.3 hPa - 0.89 m/s, 98° - -
1787906751 18.33° C 50% 1002.3 hPa - 0.45 m/s, 225° - -
1787906221 17.78° C 50% 1002.3 hPa - 1.34 m/s, 102° - -
1787905731 18.33° C 52% 1002.3 hPa - 0.45 m/s, 140° - -
1787905231 16.67° C 55% 1002.4 hPa - 1.34 m/s, 166° - -
1787904686 17.22° C 53% 1002.4 hPa - 0.89 m/s, 125° - -
1787904196 17.78° C 52% 1002.4 hPa - 0.45 m/s, 174° - -
1787903711 17.22° C 53% 1002.4 hPa - 0.45 m/s, 262° - -
1787903216 17.22° C 53% 1002.4 hPa - 0.89 m/s, 176° - -
1787902631 17.22° C 53% 1002.4 hPa - 0.89 m/s, 180° - -
1787902091 16.67° C 55% 1002.4 hPa - 0.89 m/s, 180° - -
1787901601 17.22° C 54% 1002.3 hPa - 0.45 m/s, 104° - -
1787901031 16.67° C 54% 1002.3 hPa - 1.34 m/s, 203° - -
1787900463 16.67° C 56% 1002.5 hPa - 0.89 m/s, 185° - -
1787899926 16.11° C 55% 1002.4 hPa - 1.34 m/s, 195° - -
1787899326 16.11° C 62% 1002.3 hPa - 0.45 m/s, 238° - -
1787898731 15.56° C 67% 1002.3 hPa - 1.34 m/s, 227° - -
1787898171 16.11° C 66% 1002.3 hPa - 0.89 m/s, 196° - -
1787897681 15.56° C 71% 1002.4 hPa - 1.34 m/s, 248° - -
1787897141 15° C 73% 1002.4 hPa - 1.34 m/s, 290° - -

* Rain since midnight (hover to see other rain measurements)
** Current wind speed in m/s (hover to see current wind gust speed)